Time;durP1;ratioP1;P1;durP2;ratioP2;P2;SDS_P1;SDS_P2;PMS_P1;PMS_P2;Temp;Humidity;BMP_temperature;BMP_pressure;BME280_temperature;BME280_humidity;BME280_pressure;Samples;Min_cycle;Max_cycle;Signal;HPM_P1;HPM_P2
2022/12/24 00:01:51;;;;;;;0.70;0.70;;;18.20;64.90;;;;;;5055504;27;43471;-76
2022/12/24 00:04:19;;;;;;;0.80;0.80;;;18.20;64.80;;;;;;5084818;27;43453;-74
2022/12/24 00:06:47;;;;;;;0.70;0.70;;;18.20;64.80;;;;;;5060415;28;45725;-76
2022/12/24 00:09:16;;;;;;;0.77;0.77;;;18.20;64.80;;;;;;5078593;28;43449;-75
2022/12/24 00:11:44;;;;;;;0.60;0.60;;;18.10;64.90;;;;;;5082549;27;43586;-75
2022/12/24 00:14:12;;;;;;;0.80;0.80;;;18.10;65.10;;;;;;5081672;27;43932;-76
2022/12/24 00:16:40;;;;;;;0.90;0.90;;;18.10;65.40;;;;;;5082713;27;43783;-77
2022/12/24 00:19:08;;;;;;;0.70;0.70;;;18.10;65.20;;;;;;5076264;27;44106;-75
2022/12/24 00:21:36;;;;;;;0.70;0.70;;;18.10;65.10;;;;;;5081759;27;43473;-74
2022/12/24 00:24:04;;;;;;;0.70;0.70;;;18.10;65.30;;;;;;5073068;28;43473;-74
2022/12/24 00:26:34;;;;;;;0.90;0.90;;;18.10;65.30;;;;;;5080129;27;44667;-75
2022/12/24 00:29:02;;;;;;;1.60;0.83;;;18.00;65.30;;;;;;5065919;28;44754;-76
2022/12/24 00:31:30;;;;;;;0.70;0.70;;;18.00;65.50;;;;;;5060035;28;43468;-77
2022/12/24 00:33:58;;;;;;;0.77;0.77;;;18.00;65.30;;;;;;5084840;27;43443;-76
2022/12/24 00:36:26;;;;;;;0.80;0.80;;;18.10;65.30;;;;;;5076321;27;43940;-76
2022/12/24 00:38:53;;;;;;;0.60;0.60;;;18.00;65.30;;;;;;5074812;27;43464;-77
2022/12/24 00:41:24;;;;;;;0.60;0.60;;;18.00;65.30;;;;;;5083033;27;44013;-77
2022/12/24 00:43:55;;;;;;;0.80;0.80;;;18.00;65.40;;;;;;5063344;28;43827;-77
2022/12/24 00:46:23;;;;;;;0.80;0.80;;;18.00;65.50;;;;;;5073761;27;43756;-75
2022/12/24 00:48:51;;;;;;;0.83;0.83;;;17.90;65.40;;;;;;5063012;28;44336;-77
2022/12/24 00:51:19;;;;;;;0.70;0.70;;;17.90;65.50;;;;;;5063364;27;43419;-76
2022/12/24 00:53:48;;;;;;;0.90;0.90;;;17.90;65.60;;;;;;5079265;27;45473;-75
2022/12/24 00:56:15;;;;;;;0.70;0.70;;;17.90;65.70;;;;;;5053435;28;45777;-76
2022/12/24 00:58:43;;;;;;;0.80;0.80;;;17.90;65.80;;;;;;5077839;27;44090;-75
2022/12/24 01:01:13;;;;;;;0.80;0.80;;;18.00;65.90;;;;;;5061721;28;44019;-76
2022/12/24 01:03:41;;;;;;;0.83;0.83;;;18.10;65.60;;;;;;5072268;27;43866;-76
2022/12/24 01:06:09;;;;;;;0.80;0.80;;;18.20;65.10;;;;;;5069753;28;45749;-76
2022/12/24 01:08:37;;;;;;;0.80;0.80;;;18.40;64.80;;;;;;5065919;27;44258;-77
2022/12/24 01:11:05;;;;;;;0.80;0.80;;;18.50;64.30;;;;;;5080763;27;43533;-77
2022/12/24 01:13:33;;;;;;;0.70;0.70;;;18.70;63.90;;;;;;5082849;27;44034;-77
2022/12/24 01:16:01;;;;;;;0.80;0.80;;;18.80;63.40;;;;;;5087878;27;43852;-75
2022/12/24 01:18:30;;;;;;;0.80;0.80;;;18.90;63.00;;;;;;5079082;27;43586;-77
2022/12/24 01:20:59;;;;;;;0.80;0.80;;;19.10;62.80;;;;;;5084680;27;43545;-76
2022/12/24 01:23:27;;;;;;;0.90;0.90;;;19.10;62.40;;;;;;5079960;27;43565;-74
2022/12/24 01:25:55;;;;;;;0.70;0.70;;;19.20;62.20;;;;;;5067418;28;46120;-75
2022/12/24 01:28:23;;;;;;;0.90;0.90;;;19.20;62.00;;;;;;5085707;27;43470;-76
2022/12/24 01:30:51;;;;;;;0.70;0.70;;;19.20;62.00;;;;;;5086319;27;43952;-77
2022/12/24 01:33:19;;;;;;;0.80;0.80;;;19.20;62.30;;;;;;5082263;28;43996;-77
2022/12/24 01:35:49;;;;;;;0.80;0.80;;;19.00;62.50;;;;;;5086475;27;44162;-77
2022/12/24 01:38:16;;;;;;;0.90;0.90;;;18.80;63.00;;;;;;5087611;27;43903;-75
2022/12/24 01:43:31;;;;;;;1.20;1.10;;;18.70;63.60;;;;;;5076473;27;43584;-77
2022/12/24 01:45:59;;;;;;;0.70;0.70;;;18.60;63.80;;;;;;5086542;27;43829;-77
2022/12/24 01:48:37;;;;;;;0.70;0.70;;;18.50;63.90;;;;;;5083599;27;43735;-74
2022/12/24 01:51:11;;;;;;;0.80;0.80;;;18.40;64.20;;;;;;5080013;28;43492;-77
2022/12/24 01:53:39;;;;;;;0.90;0.90;;;18.30;64.60;;;;;;5083138;27;43978;-73
2022/12/24 01:56:08;;;;;;;1.07;0.93;;;18.30;64.60;;;;;;5085275;27;43841;-77
2022/12/24 01:58:36;;;;;;;0.80;0.80;;;18.30;64.60;;;;;;5079527;28;43406;-76
2022/12/24 02:01:06;;;;;;;0.80;0.80;;;18.20;64.60;;;;;;5087460;27;43942;-77
2022/12/24 02:03:34;;;;;;;0.70;0.70;;;18.20;64.80;;;;;;5076334;28;43947;-77
2022/12/24 02:06:03;;;;;;;0.90;0.90;;;18.20;65.10;;;;;;5080650;27;44029;-77
2022/12/24 02:08:39;;;;;;;0.67;0.67;;;18.20;65.20;;;;;;5065591;28;44298;-77
2022/12/24 02:11:12;;;;;;;0.90;0.90;;;18.20;65.00;;;;;;5080337;27;43421;-77
2022/12/24 02:13:40;;;;;;;1.00;1.00;;;18.40;64.70;;;;;;5088411;27;44109;-75
2022/12/24 02:16:12;;;;;;;0.90;0.90;;;18.40;64.50;;;;;;5084808;27;44027;-76
2022/12/24 02:18:43;;;;;;;0.80;0.80;;;18.40;64.40;;;;;;5077567;28;43444;-77
2022/12/24 02:21:36;;;;;;;0.90;0.90;;;18.40;64.70;;;;;;5086503;27;44052;-74
2022/12/24 02:24:41;;;;;;;0.77;0.77;;;18.30;64.60;;;;;;5063617;27;43595;-76
2022/12/24 02:27:17;;;;;;;0.70;0.70;;;18.30;64.50;;;;;;5086658;28;43959;-77
2022/12/24 02:30:05;;;;;;;0.60;0.60;;;18.30;64.60;;;;;;5087518;28;43423;-77
2022/12/24 02:32:43;;;;;;;0.93;0.93;;;18.20;64.70;;;;;;5069514;28;43501;-75
2022/12/24 02:35:14;;;;;;;0.70;0.70;;;18.20;65.20;;;;;;5088454;28;43525;-76
2022/12/24 02:37:43;;;;;;;0.60;0.60;;;18.20;65.10;;;;;;5063241;28;46021;-75
2022/12/24 02:40:13;;;;;;;0.70;0.70;;;18.20;65.00;;;;;;5066433;28;44630;-77
2022/12/24 02:42:45;;;;;;;0.87;0.87;;;18.10;65.00;;;;;;5087746;28;43943;-76
2022/12/24 02:45:15;;;;;;;0.70;0.70;;;18.10;65.10;;;;;;5083952;27;43450;-78
2022/12/24 02:47:44;;;;;;;0.80;0.80;;;18.10;65.40;;;;;;5086255;27;43833;-76
2022/12/24 02:50:13;;;;;;;0.70;0.70;;;18.10;65.40;;;;;;5077665;27;44071;-75
2022/12/24 02:52:42;;;;;;;0.70;0.70;;;18.20;65.20;;;;;;5066654;28;43801;-76
2022/12/24 02:55:12;;;;;;;0.77;0.77;;;18.30;65.00;;;;;;5085101;27;43471;-77
2022/12/24 02:57:53;;;;;;;0.80;0.80;;;18.30;64.70;;;;;;5087995;27;43931;-76
2022/12/24 03:00:23;;;;;;;0.90;0.90;;;18.30;64.70;;;;;;5074022;27;43565;-77
2022/12/24 03:03:07;;;;;;;0.80;0.80;;;18.20;64.90;;;;;;5082832;27;43920;-76
2022/12/24 03:05:38;;;;;;;0.80;0.80;;;18.20;65.00;;;;;;5087860;27;43539;-75
2022/12/24 03:08:07;;;;;;;0.80;0.80;;;18.20;64.90;;;;;;5076555;27;43947;-77
2022/12/24 03:10:37;;;;;;;0.80;0.80;;;18.20;64.90;;;;;;5078812;27;43464;-76
2022/12/24 03:13:07;;;;;;;0.60;0.60;;;18.20;65.00;;;;;;5080804;27;43463;-76
2022/12/24 03:15:37;;;;;;;0.80;0.80;;;18.10;65.10;;;;;;5057894;28;43523;-77
2022/12/24 03:18:05;;;;;;;0.80;0.80;;;18.10;65.50;;;;;;5077252;28;43943;-77
2022/12/24 03:20:34;;;;;;;0.90;0.90;;;18.20;65.40;;;;;;5085340;27;43448;-76
2022/12/24 03:23:02;;;;;;;1.07;1.00;;;18.20;65.10;;;;;;5068656;28;43850;-76
2022/12/24 03:25:30;;;;;;;0.90;0.90;;;18.30;64.90;;;;;;5078918;27;43613;-77
2022/12/24 03:27:58;;;;;;;0.80;0.80;;;18.30;64.80;;;;;;5078833;27;44083;-77
2022/12/24 03:30:26;;;;;;;0.80;0.80;;;18.20;64.80;;;;;;5082059;27;43423;-75
2022/12/24 03:32:55;;;;;;;0.80;0.80;;;18.20;65.10;;;;;;5083337;27;44052;-77
2022/12/24 03:35:24;;;;;;;0.97;0.97;;;18.20;65.00;;;;;;5082742;27;43539;-75
2022/12/24 03:37:52;;;;;;;0.90;0.90;;;18.20;65.00;;;;;;5077892;27;43879;-76
2022/12/24 03:40:20;;;;;;;0.87;0.87;;;18.20;65.00;;;;;;5064703;28;44617;-76
2022/12/24 03:42:48;;;;;;;0.80;0.80;;;18.10;65.10;;;;;;5064777;28;43419;-74
2022/12/24 03:45:16;;;;;;;0.83;0.83;;;18.10;65.20;;;;;;5081115;27;43541;-77
2022/12/24 03:47:44;;;;;;;0.77;0.77;;;18.10;65.50;;;;;;5076867;28;43852;-76
2022/12/24 03:50:13;;;;;;;0.80;0.80;;;18.10;65.30;;;;;;5084741;27;43438;-77
2022/12/24 03:52:41;;;;;;;0.90;0.90;;;18.10;65.20;;;;;;5064061;28;43504;-77
2022/12/24 03:55:09;;;;;;;0.80;0.80;;;18.10;65.20;;;;;;5077651;27;43453;-74
2022/12/24 03:57:37;;;;;;;0.80;0.80;;;18.10;65.30;;;;;;5074515;27;44077;-77
2022/12/24 04:00:06;;;;;;;0.83;0.83;;;18.10;65.50;;;;;;5063524;27;44609;-76
2022/12/24 04:02:38;;;;;;;1.50;0.70;;;18.10;65.70;;;;;;5073820;28;44071;-74
2022/12/24 04:05:07;;;;;;;0.80;0.80;;;18.20;65.40;;;;;;5080382;27;44277;-74
2022/12/24 04:07:37;;;;;;;0.87;0.87;;;18.20;65.10;;;;;;5064109;28;46097;-77
2022/12/24 04:10:05;;;;;;;0.90;0.90;;;18.20;64.80;;;;;;5075093;28;43469;-76
2022/12/24 04:12:33;;;;;;;0.90;0.90;;;18.20;64.90;;;;;;5077374;27;43891;-76
2022/12/24 04:15:01;;;;;;;1.00;1.00;;;18.20;65.10;;;;;;5081025;27;43399;-76
2022/12/24 04:17:29;;;;;;;1.00;1.00;;;18.20;65.10;;;;;;5061059;28;45562;-77
2022/12/24 04:19:57;;;;;;;0.90;0.90;;;18.20;65.00;;;;;;5084869;27;43428;-75
2022/12/24 04:22:25;;;;;;;1.00;1.00;;;18.20;65.10;;;;;;5077425;27;43537;-76
2022/12/24 04:24:54;;;;;;;0.93;0.93;;;18.20;65.20;;;;;;5071592;27;43819;-77
2022/12/24 04:27:22;;;;;;;1.43;1.33;;;18.10;65.20;;;;;;5082469;27;43919;-77
2022/12/24 04:29:57;;;;;;;2.33;1.70;;;18.10;65.50;;;;;;5086903;27;43422;-76
2022/12/24 04:32:25;;;;;;;2.13;1.67;;;18.10;65.40;;;;;;5085179;27;43430;-76
2022/12/24 04:34:54;;;;;;;1.93;1.57;;;18.10;65.30;;;;;;5079953;27;43417;-75
2022/12/24 04:37:21;;;;;;;3.33;2.40;;;18.10;65.30;;;;;;5075975;28;44894;-76
2022/12/24 04:39:49;;;;;;;3.67;2.40;;;18.10;65.30;;;;;;5083325;27;43915;-76
2022/12/24 04:42:19;;;;;;;8.50;3.30;;;18.10;65.40;;;;;;5068101;27;43503;-75
2022/12/24 04:44:46;;;;;;;10.50;3.90;;;18.00;65.60;;;;;;5080923;27;43496;-77
2022/12/24 04:47:14;;;;;;;7.77;3.90;;;18.10;65.60;;;;;;5085952;27;43903;-77
2022/12/24 04:49:42;;;;;;;12.13;5.00;;;18.20;65.20;;;;;;5086855;27;43540;-76
2022/12/24 04:52:10;;;;;;;10.37;5.10;;;18.30;64.90;;;;;;5079341;27;43469;-75
2022/12/24 04:54:38;;;;;;;13.13;5.13;;;18.30;64.60;;;;;;5080599;27;43981;-76
2022/12/24 04:57:06;;;;;;;15.30;5.90;;;18.30;64.60;;;;;;5063582;28;46028;-76
2022/12/24 04:59:35;;;;;;;12.57;5.70;;;18.30;65.00;;;;;;5080379;28;43551;-74
2022/12/24 05:02:03;;;;;;;12.90;5.57;;;18.30;65.00;;;;;;5063596;27;43482;-76
2022/12/24 05:04:32;;;;;;;12.43;5.47;;;18.30;64.90;;;;;;5082096;28;43509;-75
2022/12/24 05:07:00;;;;;;;10.60;5.03;;;18.20;64.90;;;;;;5085843;27;43670;-75
2022/12/24 05:09:27;;;;;;;13.30;6.37;;;18.20;65.00;;;;;;5085224;27;43615;-76
2022/12/24 05:11:55;;;;;;;13.80;6.60;;;18.10;65.10;;;;;;5077071;28;43517;-77
2022/12/24 05:14:23;;;;;;;15.10;7.00;;;18.10;65.40;;;;;;5082003;27;43592;-77
2022/12/24 05:16:55;;;;;;;16.93;7.00;;;18.10;65.20;;;;;;5081213;27;45557;-77
2022/12/24 05:19:23;;;;;;;15.83;6.93;;;18.10;65.20;;;;;;5083783;27;43598;-77
2022/12/24 05:27:18;;;;;;;22.77;7.67;;;18.10;65.50;;;;;;5081628;27;43904;-76
2022/12/24 05:29:46;;;;;;;18.60;7.23;;;18.10;65.60;;;;;;5058752;28;44476;-75
2022/12/24 05:32:15;;;;;;;18.63;7.80;;;18.10;65.40;;;;;;5083813;27;45103;-77
2022/12/24 05:34:43;;;;;;;17.30;8.10;;;18.10;65.30;;;;;;5082223;27;43594;-77
2022/12/24 05:37:11;;;;;;;17.23;8.23;;;18.10;65.30;;;;;;5076748;28;43843;-77
2022/12/24 05:39:39;;;;;;;24.23;8.90;;;18.10;65.40;;;;;;5083303;27;43471;-77
2022/12/24 05:42:07;;;;;;;27.10;9.50;;;18.10;65.70;;;;;;5078648;27;43552;-77
2022/12/24 05:44:36;;;;;;;22.43;9.10;;;18.10;65.70;;;;;;5084709;27;43456;-75
2022/12/24 05:47:04;;;;;;;20.80;8.83;;;18.20;65.40;;;;;;5074247;28;43850;-72
2022/12/24 05:49:33;;;;;;;22.63;8.93;;;18.30;65.00;;;;;;5065496;27;44671;-76
2022/12/24 05:52:01;;;;;;;21.83;9.70;;;18.40;64.80;;;;;;5085164;27;43489;-73
2022/12/24 05:54:29;;;;;;;23.40;9.27;;;18.30;64.60;;;;;;5079843;27;43577;-70
2022/12/24 05:56:58;;;;;;;22.93;9.70;;;18.30;64.90;;;;;;5083021;27;43885;-76
2022/12/24 05:59:26;;;;;;;20.40;9.83;;;18.30;65.00;;;;;;5081680;27;43503;-76
2022/12/24 06:01:54;;;;;;;20.93;8.90;;;18.30;64.80;;;;;;5063916;27;43441;-77
2022/12/24 06:04:22;;;;;;;19.80;9.17;;;18.30;64.90;;;;;;5078128;27;43484;-77
2022/12/24 06:06:57;;;;;;;17.83;8.53;;;18.30;65.00;;;;;;5086891;27;44190;-75
2022/12/24 06:09:25;;;;;;;22.00;9.60;;;18.20;65.10;;;;;;5080053;28;43514;-77
2022/12/24 06:11:53;;;;;;;22.23;9.47;;;18.20;65.40;;;;;;5082807;27;43461;-74
2022/12/24 06:14:21;;;;;;;18.67;8.87;;;18.20;65.40;;;;;;5087673;27;43487;-77
2022/12/24 06:16:48;;;;;;;15.40;8.33;;;18.20;65.20;;;;;;5073964;28;43736;-76
2022/12/24 06:19:16;;;;;;;17.40;8.70;;;18.20;65.30;;;;;;5066693;28;44919;-77
2022/12/24 06:21:44;;;;;;;18.83;8.77;;;18.10;65.30;;;;;;5087273;27;43519;-77
2022/12/24 06:24:14;;;;;;;19.63;9.07;;;18.10;65.40;;;;;;5066917;27;44068;-75
2022/12/24 06:26:42;;;;;;;19.20;8.83;;;18.10;65.70;;;;;;5063790;28;46332;-72
2022/12/24 06:29:10;;;;;;;16.80;8.10;;;18.10;65.50;;;;;;5065301;28;44247;-77
2022/12/24 06:31:38;;;;;;;17.07;8.43;;;18.10;66.10;;;;;;5065871;28;43559;-76
2022/12/24 06:34:06;;;;;;;13.80;7.67;;;18.10;65.40;;;;;;5060908;28;43857;-77
2022/12/24 06:36:34;;;;;;;16.60;7.73;;;18.10;65.50;;;;;;5076517;28;43910;-75
2022/12/24 06:39:02;;;;;;;19.53;9.33;;;18.10;65.60;;;;;;5066806;28;44521;-77
2022/12/24 06:41:31;;;;;;;13.43;8.03;;;18.10;65.80;;;;;;5084863;27;43516;-76
2022/12/24 06:44:00;;;;;;;19.77;8.43;;;18.10;65.80;;;;;;5054953;28;43778;-77
2022/12/24 06:46:28;;;;;;;18.30;8.37;;;18.20;65.40;;;;;;5084729;27;43603;-76
2022/12/24 06:48:56;;;;;;;15.50;7.97;;;18.30;65.80;;;;;;5078643;27;43481;-76
2022/12/24 06:51:24;;;;;;;16.77;8.43;;;18.30;64.80;;;;;;5059281;28;43519;-76
2022/12/24 06:53:51;;;;;;;17.37;8.43;;;18.30;64.80;;;;;;5048064;28;43505;-76
2022/12/24 06:56:20;;;;;;;15.67;7.70;;;18.30;65.00;;;;;;5053954;28;43923;-77
2022/12/24 06:58:49;;;;;;;13.17;7.37;;;18.30;65.10;;;;;;5042014;28;44723;-74
2022/12/24 07:01:18;;;;;;;16.13;7.30;;;18.30;65.00;;;;;;5041700;28;43809;-77
2022/12/24 07:03:46;;;;;;;15.27;7.60;;;18.20;65.00;;;;;;5041906;28;44048;-76
2022/12/24 07:06:17;;;;;;;12.03;7.20;;;18.20;65.10;;;;;;5042529;28;43697;-74
2022/12/24 07:08:45;;;;;;;16.30;7.97;;;18.20;65.30;;;;;;5047560;28;44242;-78
2022/12/24 07:11:13;;;;;;;13.13;7.80;;;18.10;65.50;;;;;;5044213;28;43462;-77
2022/12/24 07:13:41;;;;;;;16.17;7.67;;;18.10;65.40;;;;;;5045718;28;43408;-77
2022/12/24 07:16:10;;;;;;;12.57;7.03;;;18.10;65.40;;;;;;5041401;28;43890;-77
2022/12/24 07:18:38;;;;;;;13.87;7.73;;;18.10;65.40;;;;;;5041657;28;44701;-77
2022/12/24 07:21:07;;;;;;;14.07;7.53;;;18.10;65.50;;;;;;5044369;28;43484;-76
2022/12/24 07:23:35;;;;;;;16.80;8.73;;;18.10;65.50;;;;;;5044960;28;44021;-76
2022/12/24 07:26:03;;;;;;;13.70;7.20;;;18.10;65.80;;;;;;5041763;28;43907;-77
2022/12/24 07:28:31;;;;;;;12.00;7.13;;;18.10;65.70;;;;;;5044709;28;44076;-75
2022/12/24 07:30:59;;;;;;;13.60;7.30;;;18.20;65.40;;;;;;5040144;28;43956;-75
2022/12/24 07:33:29;;;;;;;10.43;6.57;;;18.20;65.10;;;;;;5035301;28;43449;-73
2022/12/24 07:36:01;;;;;;;12.47;7.10;;;18.20;65.10;;;;;;5047797;28;43923;-73
2022/12/24 07:38:29;;;;;;;11.77;6.73;;;18.20;65.20;;;;;;5044674;28;44135;-76
2022/12/24 07:40:57;;;;;;;11.17;6.80;;;18.20;65.50;;;;;;5037892;28;43423;-76
2022/12/24 07:43:25;;;;;;;12.07;6.80;;;18.20;65.30;;;;;;5045545;28;43453;-77
2022/12/24 07:45:56;;;;;;;11.27;6.87;;;18.20;65.30;;;;;;5043096;28;43598;-77
2022/12/24 07:48:24;;;;;;;11.57;6.43;;;18.20;65.40;;;;;;5045152;28;44646;-76
2022/12/24 07:50:53;;;;;;;10.57;6.43;;;18.10;65.40;;;;;;5031311;28;43498;-76
2022/12/24 07:53:21;;;;;;;11.00;6.90;;;18.10;65.50;;;;;;5058801;28;44120;-77
2022/12/24 07:55:49;;;;;;;12.73;6.53;;;18.10;65.70;;;;;;5058417;28;45939;-77
2022/12/24 07:58:17;;;;;;;10.47;6.90;;;18.20;65.50;;;;;;5051002;28;44696;-77
2022/12/24 08:00:45;;;;;;;10.77;6.23;;;18.30;65.20;;;;;;5057239;28;43542;-75
2022/12/24 08:03:16;;;;;;;11.37;5.83;;;18.30;64.90;;;;;;5069280;28;43469;-77
2022/12/24 08:05:44;;;;;;;9.87;6.23;;;18.30;64.80;;;;;;5061109;28;45201;-76
2022/12/24 08:08:13;;;;;;;9.40;6.17;;;18.30;65.00;;;;;;5059666;28;43448;-77
2022/12/24 08:10:41;;;;;;;10.60;5.87;;;18.30;65.20;;;;;;5063588;28;43457;-76
2022/12/24 08:13:09;;;;;;;8.57;5.87;;;18.30;65.00;;;;;;5068678;28;43445;-76
2022/12/24 08:15:37;;;;;;;8.50;6.07;;;18.30;65.10;;;;;;5065812;28;44974;-76
2022/12/24 08:18:05;;;;;;;8.73;5.90;;;18.20;65.10;;;;;;5056739;28;44086;-77
2022/12/24 08:20:33;;;;;;;6.83;5.10;;;18.20;65.20;;;;;;5064708;28;44009;-75
2022/12/24 08:23:01;;;;;;;8.10;5.63;;;18.10;65.30;;;;;;5052526;28;44125;-77
2022/12/24 08:25:31;;;;;;;8.97;6.60;;;18.10;65.50;;;;;;5058217;28;43929;-75
2022/12/24 08:27:59;;;;;;;9.13;5.40;;;18.10;65.40;;;;;;5063597;28;43597;-75
2022/12/24 08:30:27;;;;;;;7.43;5.20;;;18.10;65.40;;;;;;5073646;28;43405;-72
2022/12/24 08:32:55;;;;;;;8.67;5.80;;;18.10;65.40;;;;;;5064161;28;43447;-77
2022/12/24 08:35:22;;;;;;;7.67;5.30;;;18.10;65.40;;;;;;5063539;28;43917;-77
2022/12/24 08:37:50;;;;;;;8.17;5.33;;;18.10;65.70;;;;;;5065842;28;43396;-77
2022/12/24 08:40:18;;;;;;;8.70;5.33;;;18.10;65.70;;;;;;5064436;28;43494;-77
2022/12/24 08:42:48;;;;;;;8.57;5.20;;;18.10;65.50;;;;;;5066598;28;43690;-74
2022/12/24 08:45:16;;;;;;;7.83;5.50;;;18.10;65.50;;;;;;5064380;28;45469;-77
2022/12/24 08:47:44;;;;;;;6.03;4.77;;;18.10;65.50;;;;;;5065920;28;43413;-77
2022/12/24 08:50:12;;;;;;;8.80;5.67;;;18.10;65.60;;;;;;5065986;28;43766;-76
2022/12/24 08:52:40;;;;;;;9.27;5.77;;;18.00;65.70;;;;;;5070836;28;43478;-77
2022/12/24 08:55:08;;;;;;;6.37;5.07;;;18.10;65.90;;;;;;5067253;28;45674;-75
2022/12/24 08:57:36;;;;;;;6.37;5.57;;;18.20;65.60;;;;;;5066772;28;44063;-77
2022/12/24 09:00:07;;;;;;;6.50;5.17;;;18.30;65.20;;;;;;5085941;28;43959;-74
2022/12/24 09:02:35;;;;;;;7.00;5.00;;;18.30;64.80;;;;;;5086239;28;43470;-74
2022/12/24 09:05:04;;;;;;;9.37;5.87;;;18.30;64.70;;;;;;5086097;28;43698;-76
2022/12/24 09:07:32;;;;;;;5.60;4.97;;;18.30;64.90;;;;;;5063027;28;44432;-75
2022/12/24 09:09:59;;;;;;;7.40;5.03;;;18.30;65.20;;;;;;5086006;28;43502;-76
2022/12/24 09:12:27;;;;;;;6.00;4.77;;;18.30;65.00;;;;;;5067610;28;43490;-76
2022/12/24 09:14:55;;;;;;;7.40;5.13;;;18.20;65.00;;;;;;5067764;28;45353;-76
2022/12/24 09:17:32;;;;;;;7.13;5.00;;;18.20;65.10;;;;;;5085144;28;43465;-76
2022/12/24 09:20:00;;;;;;;6.03;5.07;;;18.20;65.20;;;;;;5085765;28;43441;-77
2022/12/24 09:22:28;;;;;;;5.43;4.70;;;18.10;65.30;;;;;;5067624;28;43599;-76
2022/12/24 09:24:55;;;;;;;5.97;5.10;;;18.10;65.60;;;;;;5067493;28;45944;-77
2022/12/24 09:27:23;;;;;;;6.63;5.10;;;18.10;65.40;;;;;;5088110;28;43963;-77
2022/12/24 09:29:51;;;;;;;5.97;4.97;;;18.10;65.40;;;;;;5089376;28;44024;-77
2022/12/24 09:32:19;;;;;;;5.10;4.60;;;18.10;65.40;;;;;;5089660;28;44040;-76
2022/12/24 09:34:49;;;;;;;6.40;4.87;;;18.10;65.50;;;;;;5087214;28;43928;-77
2022/12/24 09:37:17;;;;;;;7.03;4.77;;;18.10;65.70;;;;;;5088993;28;44054;-76
2022/12/24 09:39:44;;;;;;;5.10;4.57;;;18.10;65.90;;;;;;5088702;28;43427;-76
2022/12/24 09:42:18;;;;;;;6.20;4.80;;;18.20;65.60;;;;;;5089645;28;44006;-76
2022/12/24 09:44:47;;;;;;;5.80;4.70;;;18.20;65.10;;;;;;5089084;28;43615;-76
2022/12/24 09:47:21;;;;;;;5.63;4.80;;;18.20;65.00;;;;;;5067740;28;44580;-77
2022/12/24 09:49:51;;;;;;;7.90;5.67;;;18.20;65.00;;;;;;5087632;28;43328;-75
2022/12/24 09:52:25;;;;;;;5.43;4.50;;;18.20;65.20;;;;;;5088898;28;43616;-77
2022/12/24 09:54:58;;;;;;;4.77;4.30;;;18.20;65.30;;;;;;5069168;28;46092;-74
2022/12/24 09:57:28;;;;;;;5.63;4.57;;;18.20;65.20;;;;;;5070414;28;45180;-76
2022/12/24 09:59:56;;;;;;;5.07;4.57;;;18.20;65.30;;;;;;5088875;28;43837;-76
2022/12/24 10:02:24;;;;;;;4.90;4.23;;;18.20;65.30;;;;;;5082723;28;43457;-76
2022/12/24 10:04:54;;;;;;;5.47;4.53;;;18.10;65.40;;;;;;5088665;28;43861;-76
2022/12/24 10:07:29;;;;;;;5.83;4.47;;;18.10;65.70;;;;;;5088645;28;43394;-74
2022/12/24 10:10:01;;;;;;;4.87;4.40;;;18.10;65.60;;;;;;5088573;28;43480;-75
2022/12/24 10:12:32;;;;;;;4.77;4.23;;;18.10;65.50;;;;;;5089086;28;43371;-75
2022/12/24 10:15:03;;;;;;;5.63;4.57;;;18.10;65.50;;;;;;5088394;28;43926;-75
2022/12/24 10:17:39;;;;;;;4.63;4.10;;;18.10;65.60;;;;;;5084060;28;43820;-76
2022/12/24 10:20:42;;;;;;;4.97;4.27;;;18.00;65.60;;;;;;5088401;28;43391;-76
2022/12/24 10:23:15;;;;;;;4.63;4.17;;;18.00;65.90;;;;;;5070409;28;44458;-76
2022/12/24 10:25:46;;;;;;;6.43;4.00;;;18.10;65.80;;;;;;5087893;28;43603;-77
2022/12/24 10:28:15;;;;;;;5.40;4.50;;;18.20;65.40;;;;;;5088126;28;43422;-76
2022/12/24 10:30:44;;;;;;;4.47;4.10;;;18.30;65.00;;;;;;5084817;28;43514;-76
2022/12/24 10:33:16;;;;;;;5.00;4.57;;;18.30;64.90;;;;;;5088436;28;43387;-74
2022/12/24 10:35:47;;;;;;;4.97;4.37;;;18.30;65.00;;;;;;5069620;28;45841;-75
2022/12/24 10:38:15;;;;;;;4.07;3.70;;;18.20;65.20;;;;;;5087380;27;43463;-77
2022/12/24 10:40:44;;;;;;;4.13;3.83;;;18.30;65.10;;;;;;5088099;28;44039;-77
2022/12/24 10:43:14;;;;;;;5.10;3.93;;;18.20;65.10;;;;;;5088296;28;43432;-75
2022/12/24 10:45:46;;;;;;;3.77;3.37;;;18.20;65.80;;;;;;5069360;28;45714;-76
2022/12/24 10:48:18;;;;;;;4.13;3.73;;;18.20;65.30;;;;;;5087653;28;43353;-77
2022/12/24 10:50:52;;;;;;;4.67;4.23;;;18.10;65.40;;;;;;5087450;28;43929;-76
2022/12/24 10:53:23;;;;;;;3.77;3.47;;;18.10;65.60;;;;;;5081453;28;43441;-76
2022/12/24 10:55:51;;;;;;;4.10;3.77;;;18.10;65.40;;;;;;5067771;28;45279;-77
2022/12/24 10:58:19;;;;;;;3.80;3.50;;;18.10;65.50;;;;;;5084846;28;43539;-77
2022/12/24 11:00:50;;;;;;;3.70;3.40;;;18.10;65.50;;;;;;5086927;27;43948;-76
2022/12/24 11:03:28;;;;;;;4.13;3.73;;;18.10;65.60;;;;;;5093764;27;43562;-77
2022/12/24 11:06:06;;;;;;;4.13;3.77;;;18.10;65.80;;;;;;5065659;27;45703;-77
2022/12/24 11:08:34;;;;;;;4.37;3.97;;;18.10;65.90;;;;;;5084590;27;43504;-76
2022/12/24 11:11:03;;;;;;;3.80;3.50;;;18.10;65.70;;;;;;5088397;27;43466;-75
2022/12/24 11:13:32;;;;;;;3.60;3.30;;;18.10;65.70;;;;;;5089579;27;43499;-77
2022/12/24 11:16:07;;;;;;;4.10;3.60;;;18.10;65.80;;;;;;5087278;28;43949;-76
2022/12/24 11:18:36;;;;;;;4.00;3.67;;;18.10;65.80;;;;;;5067184;28;44712;-76
2022/12/24 11:21:06;;;;;;;3.57;3.37;;;18.00;65.90;;;;;;5067687;28;43433;-76
2022/12/24 11:23:34;;;;;;;4.03;3.63;;;18.10;66.00;;;;;;5087665;28;43359;-76
2022/12/24 11:26:02;;;;;;;3.53;3.33;;;18.20;65.70;;;;;;5075984;27;43895;-76
2022/12/24 11:28:31;;;;;;;3.90;3.60;;;18.30;65.30;;;;;;5086928;28;43469;-75
2022/12/24 11:31:02;;;;;;;3.80;3.50;;;18.30;65.00;;;;;;5072266;27;44187;-76
2022/12/24 11:33:30;;;;;;;3.97;3.60;;;18.30;64.90;;;;;;5066171;28;44057;-72
2022/12/24 11:36:01;;;;;;;3.97;3.57;;;18.30;65.10;;;;;;5077057;27;43875;-76
2022/12/24 11:38:31;;;;;;;3.47;3.27;;;18.30;65.20;;;;;;5083938;27;43468;-76
2022/12/24 11:41:04;;;;;;;3.20;3.10;;;18.30;65.10;;;;;;5079999;27;43389;-77
2022/12/24 11:43:44;;;;;;;2.80;2.60;;;18.20;65.10;;;;;;5077740;27;43564;-77
2022/12/24 11:46:14;;;;;;;3.40;3.20;;;18.20;65.30;;;;;;5081059;27;43841;-77
2022/12/24 11:48:42;;;;;;;3.20;3.00;;;18.10;65.40;;;;;;5083571;27;43446;-75
2022/12/24 11:51:20;;;;;;;4.20;3.27;;;18.10;65.60;;;;;;5083898;27;43610;-75
2022/12/24 11:53:51;;;;;;;3.33;3.10;;;18.10;65.40;;;;;;5057497;28;43542;-76
2022/12/24 11:56:27;;;;;;;3.47;3.27;;;18.10;65.50;;;;;;5061313;28;45582;-76
2022/12/24 11:58:58;;;;;;;3.40;3.10;;;18.10;65.60;;;;;;5055766;28;44156;-77
2022/12/24 12:01:29;;;;;;;3.13;2.83;;;18.10;65.70;;;;;;5063093;28;43512;-77
2022/12/24 12:03:58;;;;;;;3.40;3.10;;;18.10;65.90;;;;;;5081378;27;43578;-72
2022/12/24 12:06:28;;;;;;;3.10;2.90;;;18.10;65.80;;;;;;5062587;28;43608;-77
2022/12/24 12:08:59;;;;;;;2.87;2.77;;;18.10;65.70;;;;;;5052013;28;43464;-75
2022/12/24 12:11:27;;;;;;;3.47;3.27;;;18.10;65.70;;;;;;5060658;28;43876;-76
2022/12/24 12:13:56;;;;;;;3.10;2.90;;;18.10;65.80;;;;;;5066171;28;43533;-75
2022/12/24 12:16:25;;;;;;;3.13;2.93;;;18.10;65.80;;;;;;5051370;28;45635;-76
2022/12/24 12:18:55;;;;;;;3.20;3.00;;;18.00;65.90;;;;;;5061149;28;43491;-75
2022/12/24 12:21:25;;;;;;;3.27;3.07;;;18.10;65.90;;;;;;5059823;28;43782;-76
2022/12/24 12:23:54;;;;;;;2.90;2.70;;;18.20;65.50;;;;;;5064951;28;43448;-74
2022/12/24 12:26:25;;;;;;;3.20;3.00;;;18.30;65.20;;;;;;5054110;28;43917;-77
2022/12/24 12:28:54;;;;;;;3.60;3.40;;;18.30;65.00;;;;;;5057344;28;44351;-75
2022/12/24 12:31:24;;;;;;;2.93;2.73;;;18.30;65.10;;;;;;5068150;28;43827;-72
2022/12/24 12:33:53;;;;;;;2.67;2.57;;;18.20;65.30;;;;;;5068943;28;43487;-77
2022/12/24 12:36:23;;;;;;;3.07;2.87;;;18.30;65.30;;;;;;5059923;28;44034;-76
2022/12/24 12:38:51;;;;;;;2.83;2.63;;;18.20;65.20;;;;;;5065832;28;43449;-77
2022/12/24 12:41:29;;;;;;;2.50;2.40;;;18.20;65.30;;;;;;5064418;28;43438;-76
2022/12/24 12:44:25;;;;;;;2.70;2.60;;;18.20;65.40;;;;;;5065905;28;43807;-75
2022/12/24 12:47:10;;;;;;;2.93;2.77;;;18.10;66.20;;;;;;5061425;28;46203;-77
2022/12/24 12:49:42;;;;;;;3.00;2.80;;;18.10;65.70;;;;;;5065386;28;43852;-76
2022/12/24 12:52:15;;;;;;;2.57;2.40;;;18.10;65.50;;;;;;5063349;28;43398;-76
2022/12/24 12:54:56;;;;;;;2.60;2.50;;;18.10;65.50;;;;;;5066111;28;43446;-76
2022/12/24 12:57:27;;;;;;;2.90;2.80;;;18.10;65.60;;;;;;5066203;28;43874;-77
2022/12/24 12:59:57;;;;;;;2.33;2.23;;;18.10;65.80;;;;;;5066696;28;43610;-75
2022/12/24 13:02:41;;;;;;;2.60;2.47;;;18.10;65.90;;;;;;5068139;28;43465;-74
2022/12/24 13:05:37;;;;;;;2.60;2.50;;;18.10;65.90;;;;;;5066358;28;43670;-77